createdAt,value
2018-04-16T00:01:57.982Z,10.43
2018-04-16T00:04:26.224Z,7.10
2018-04-16T00:06:54.453Z,9.17
2018-04-16T00:09:22.667Z,9.50
2018-04-16T00:11:50.870Z,6.83
2018-04-16T00:14:19.083Z,7.50
2018-04-16T00:16:47.294Z,9.27
2018-04-16T00:19:15.531Z,8.37
2018-04-16T00:21:43.760Z,6.93
2018-04-16T00:24:11.967Z,6.83
2018-04-16T00:26:40.158Z,8.27
2018-04-16T00:29:08.377Z,11.47
2018-04-16T00:31:42.258Z,6.10
2018-04-16T00:34:16.083Z,9.50
2018-04-16T00:36:50.024Z,6.37
2018-04-16T00:39:23.950Z,6.27
2018-04-16T00:41:57.887Z,10.20
2018-04-16T00:44:31.859Z,8.30
2018-04-16T00:47:05.826Z,5.20
2018-04-16T00:49:39.851Z,6.93
2018-04-16T00:52:13.742Z,6.73
2018-04-16T00:54:47.724Z,9.00
2018-04-16T00:57:21.623Z,7.83
2018-04-16T00:59:56.160Z,7.73
2018-04-16T01:02:29.930Z,5.77
2018-04-16T01:05:03.882Z,10.10
2018-04-16T01:07:37.670Z,9.23
2018-04-16T01:10:11.457Z,9.37
2018-04-16T01:12:46.010Z,7.23
2018-04-16T01:15:19.918Z,8.13
2018-04-16T01:17:53.700Z,7.97
2018-04-16T01:20:27.520Z,5.40
2018-04-16T01:23:01.417Z,4.77
2018-04-16T01:25:35.305Z,8.17
2018-04-16T01:28:09.075Z,5.80
2018-04-16T01:30:42.868Z,8.90
2018-04-16T01:33:16.758Z,4.87
2018-04-16T01:35:50.882Z,2.77
2018-04-16T01:38:24.758Z,5.20
2018-04-16T01:40:58.543Z,4.33
2018-04-16T01:43:32.350Z,9.40
2018-04-16T01:46:06.277Z,7.03
2018-04-16T01:48:40.074Z,6.87
2018-04-16T01:51:13.943Z,3.73
2018-04-16T01:53:47.818Z,5.73
2018-04-16T01:56:21.618Z,4.63
2018-04-16T01:58:55.358Z,4.27
2018-04-16T02:04:34.924Z,6.80
2018-04-16T02:07:08.867Z,3.20
2018-04-16T02:09:42.745Z,8.23
2018-04-16T02:12:16.745Z,2.93
2018-04-16T02:14:50.526Z,6.37
2018-04-16T02:17:24.427Z,5.30
2018-04-16T02:19:58.215Z,3.03
2018-04-16T02:22:32.075Z,2.00
2018-04-16T02:25:05.834Z,2.13
2018-04-16T02:27:39.707Z,5.10
2018-04-16T02:30:13.641Z,8.77
2018-04-16T02:32:47.542Z,5.13
2018-04-16T02:35:21.313Z,7.97
2018-04-16T02:37:55.220Z,4.17
2018-04-16T02:40:29.043Z,5.67
2018-04-16T02:43:02.962Z,3.30
2018-04-16T02:45:36.867Z,10.50
2018-04-16T02:48:10.697Z,6.30
2018-04-16T02:50:44.441Z,3.60
2018-04-16T02:53:18.332Z,3.87
2018-04-16T02:55:52.320Z,4.03
2018-04-16T02:58:26.187Z,4.47
2018-04-16T03:01:00.110Z,8.40
2018-04-16T03:03:33.994Z,2.87
2018-04-16T03:06:07.901Z,4.77
2018-04-16T03:08:41.691Z,6.50
2018-04-16T03:11:15.458Z,5.03
2018-04-16T03:13:49.487Z,3.00
2018-04-16T03:16:23.407Z,6.23
2018-04-16T03:18:57.300Z,2.20
2018-04-16T03:21:31.227Z,1.90
2018-04-16T03:24:05.158Z,3.07
2018-04-16T03:26:39.030Z,2.13
2018-04-16T03:29:12.819Z,3.07
2018-04-16T03:31:46.742Z,2.33
2018-04-16T03:34:20.707Z,5.77
2018-04-16T03:36:54.552Z,2.77
2018-04-16T03:39:29.099Z,6.87
2018-04-16T03:42:03.819Z,2.30
2018-04-16T03:44:37.748Z,1.83
2018-04-16T03:47:11.547Z,3.10
2018-04-16T03:49:45.363Z,2.00
2018-04-16T03:52:19.260Z,1.80
2018-04-16T03:54:51.285Z,2.40
2018-04-16T03:57:19.480Z,2.67
2018-04-16T03:59:47.742Z,2.93
2018-04-16T04:02:15.909Z,2.57
2018-04-16T04:04:44.105Z,1.80
2018-04-16T04:07:12.325Z,2.13
2018-04-16T04:09:40.558Z,2.83
2018-04-16T04:12:08.739Z,3.23
2018-04-16T04:14:36.953Z,2.70
2018-04-16T04:17:05.187Z,3.13
2018-04-16T04:19:33.420Z,1.80
2018-04-16T04:22:01.628Z,1.73
2018-04-16T04:24:41.528Z,6.97
2018-04-16T04:30:27.088Z,1.90
2018-04-16T04:32:55.287Z,3.60
2018-04-16T04:35:23.520Z,2.43
2018-04-16T04:37:51.715Z,2.27
2018-04-16T04:40:19.923Z,2.20
2018-04-16T04:42:48.143Z,2.77
2018-04-16T04:45:16.378Z,6.73
2018-04-16T04:47:44.556Z,2.40
2018-04-16T04:50:12.758Z,1.93
2018-04-16T04:52:41.009Z,2.77
2018-04-16T04:55:09.195Z,2.90
2018-04-16T04:57:37.395Z,2.73
2018-04-16T05:00:05.626Z,5.20
2018-04-16T05:02:33.817Z,8.33
2018-04-16T05:05:02.021Z,2.93
2018-04-16T05:07:30.203Z,3.77
2018-04-16T05:09:58.420Z,7.53
2018-04-16T05:12:26.635Z,2.60
2018-04-16T05:14:54.836Z,7.63
2018-04-16T05:17:23.045Z,3.27
2018-04-16T05:19:51.269Z,3.73
2018-04-16T05:22:19.459Z,2.73
2018-04-16T05:24:47.684Z,2.63
2018-04-16T05:27:15.871Z,5.83
2018-04-16T05:29:44.068Z,3.60
2018-04-16T05:32:12.275Z,2.30
2018-04-16T05:34:40.477Z,6.93
2018-04-16T05:37:08.690Z,2.77
2018-04-16T05:39:36.913Z,6.00
2018-04-16T05:42:05.110Z,6.50
2018-04-16T05:44:33.316Z,3.03
2018-04-16T05:47:01.518Z,4.43
2018-04-16T05:49:29.723Z,6.37
2018-04-16T05:51:57.924Z,7.03
2018-04-16T05:54:26.122Z,7.23
2018-04-16T05:56:54.392Z,13.23
2018-04-16T05:59:22.593Z,8.73
2018-04-16T06:01:50.798Z,9.07
2018-04-16T06:04:19.025Z,9.03
2018-04-16T06:06:47.243Z,11.90
2018-04-16T06:09:15.464Z,7.13
2018-04-16T06:11:43.675Z,8.53
2018-04-16T06:14:11.959Z,16.30
2018-04-16T06:16:40.158Z,8.80
2018-04-16T06:19:08.409Z,9.90
2018-04-16T06:21:37.359Z,13.87
2018-04-16T06:24:05.707Z,8.03
2018-04-16T06:26:33.934Z,8.17
2018-04-16T06:29:02.263Z,13.87
2018-04-16T06:31:30.493Z,14.80
2018-04-16T06:33:58.684Z,13.03
2018-04-16T06:36:26.879Z,15.37
2018-04-16T06:38:55.099Z,13.63
2018-04-16T06:41:24.094Z,9.30
2018-04-16T06:43:53.087Z,12.07
2018-04-16T06:46:22.065Z,8.97
2018-04-16T06:48:50.275Z,10.77
2018-04-16T06:51:18.498Z,15.97
2018-04-16T06:53:46.707Z,13.13
2018-04-16T06:56:14.919Z,14.23
2018-04-16T06:58:43.136Z,18.90
2018-04-16T07:01:11.386Z,16.77
2018-04-16T07:03:39.609Z,16.13
2018-04-16T07:06:07.820Z,15.50
2018-04-16T07:08:36.032Z,18.73
2018-04-16T07:11:05.024Z,5.33
2018-04-16T07:13:33.224Z,18.77
2018-04-16T07:16:02.317Z,11.70
2018-04-16T07:18:30.479Z,13.37
2018-04-16T07:20:58.691Z,16.37
2018-04-16T07:23:26.911Z,19.60
2018-04-16T07:25:55.152Z,17.93
2018-04-16T07:28:23.375Z,12.53
2018-04-16T07:30:51.618Z,18.57
2018-04-16T07:33:19.873Z,15.67
2018-04-16T07:35:48.069Z,13.70
2018-04-16T07:38:16.307Z,17.97
2018-04-16T07:40:44.528Z,11.37
2018-04-16T07:43:12.751Z,13.37
2018-04-16T07:45:41.089Z,14.60
2018-04-16T07:48:09.319Z,11.47
2018-04-16T07:50:37.538Z,16.03
2018-04-16T07:53:07.444Z,13.00
2018-04-16T07:55:35.653Z,10.07
2018-04-16T07:58:03.883Z,10.33
2018-04-16T08:00:32.308Z,13.83
2018-04-16T08:03:00.530Z,9.23
2018-04-16T08:05:28.779Z,9.73
2018-04-16T08:07:56.979Z,10.43
2018-04-16T08:10:25.615Z,7.43
2018-04-16T08:12:53.829Z,7.17
2018-04-16T08:15:22.042Z,6.30
2018-04-16T08:17:50.264Z,5.23
2018-04-16T08:20:18.488Z,9.10
2018-04-16T08:22:46.837Z,12.00
2018-04-16T08:25:15.296Z,7.10
2018-04-16T08:27:44.236Z,10.80
2018-04-16T08:30:12.509Z,9.03
2018-04-16T08:32:40.686Z,8.57
2018-04-16T08:35:09.659Z,8.23
2018-04-16T08:37:37.876Z,6.70
2018-04-16T08:40:06.087Z,11.87
2018-04-16T08:42:34.320Z,13.20
2018-04-16T08:45:02.585Z,11.23
2018-04-16T08:47:30.763Z,7.37
2018-04-16T08:49:59.015Z,11.10
2018-04-16T08:52:27.223Z,8.57
2018-04-16T08:54:55.443Z,7.90
2018-04-16T08:57:23.647Z,7.50
2018-04-16T08:59:51.867Z,7.43
2018-04-16T09:02:20.079Z,7.60
2018-04-16T09:04:49.055Z,12.37
2018-04-16T09:07:17.286Z,9.50
2018-04-16T09:09:45.514Z,7.43
2018-04-16T09:12:14.489Z,11.23
2018-04-16T09:14:42.714Z,12.30
2018-04-16T09:17:10.969Z,6.17
2018-04-16T09:19:39.164Z,8.77
2018-04-16T09:22:07.376Z,9.70
2018-04-16T09:24:35.623Z,7.27
2018-04-16T09:27:03.887Z,11.13
2018-04-16T09:29:32.830Z,8.50
2018-04-16T09:32:01.070Z,4.83
2018-04-16T09:34:29.297Z,10.67
2018-04-16T09:36:58.318Z,8.20
2018-04-16T09:39:26.536Z,7.57
2018-04-16T09:41:54.749Z,5.87
2018-04-16T09:44:22.962Z,7.13
2018-04-16T09:46:51.187Z,7.27
2018-04-16T09:49:19.603Z,15.77
2018-04-16T09:51:47.827Z,7.50
2018-04-16T09:54:16.035Z,11.33
2018-04-16T09:56:44.266Z,8.87
2018-04-16T09:59:12.487Z,6.00
2018-04-16T10:01:40.691Z,10.03
2018-04-16T10:04:08.907Z,8.87
2018-04-16T10:06:37.143Z,11.17
2018-04-16T10:09:06.231Z,10.53
2018-04-16T10:11:34.464Z,6.23
2018-04-16T10:14:02.667Z,15.07
2018-04-16T10:16:30.884Z,8.50
2018-04-16T10:18:59.085Z,11.80
2018-04-16T10:21:27.320Z,7.97
2018-04-16T10:23:55.656Z,9.67
2018-04-16T10:26:23.907Z,8.70
2018-04-16T10:28:52.096Z,12.30
2018-04-16T10:31:20.305Z,11.73
2018-04-16T10:33:48.572Z,8.70
2018-04-16T10:36:16.799Z,13.60
2018-04-16T10:38:45.024Z,11.93
2018-04-16T10:41:13.239Z,10.07
2018-04-16T10:43:41.431Z,16.80
2018-04-16T10:46:09.660Z,12.30
2018-04-16T10:48:37.921Z,9.13
2018-04-16T10:51:06.186Z,11.77
2018-04-16T10:53:34.439Z,9.83
2018-04-16T10:56:02.649Z,10.50
2018-04-16T10:58:30.939Z,8.87
2018-04-16T11:00:59.197Z,5.93
2018-04-16T11:03:27.384Z,10.77
2018-04-16T11:05:55.595Z,6.93
2018-04-16T11:08:23.858Z,6.47
2018-04-16T11:10:52.054Z,8.03
2018-04-16T11:13:20.280Z,9.80
2018-04-16T11:15:48.515Z,10.27
2018-04-16T11:18:16.735Z,7.47
2018-04-16T11:20:44.990Z,14.17
2018-04-16T11:23:13.193Z,7.40
2018-04-16T11:25:41.454Z,12.30
2018-04-16T11:28:09.684Z,8.17
2018-04-16T11:30:37.902Z,10.00
2018-04-16T11:33:06.142Z,12.20
2018-04-16T11:35:34.362Z,12.50
2018-04-16T11:38:02.643Z,11.07
2018-04-16T11:40:30.836Z,15.37
2018-04-16T11:42:59.038Z,11.60
2018-04-16T11:45:27.256Z,6.03
2018-04-16T11:47:55.487Z,8.97
2018-04-16T11:50:23.699Z,8.73
2018-04-16T11:52:51.947Z,8.80
2018-04-16T11:55:20.203Z,8.70
2018-04-16T11:57:48.439Z,11.13
2018-04-16T12:00:16.680Z,11.50
2018-04-16T12:02:44.987Z,6.97
2018-04-16T12:05:13.245Z,14.70
2018-04-16T12:07:41.484Z,11.00
2018-04-16T12:10:09.695Z,11.33
2018-04-16T12:12:38.695Z,7.53
2018-04-16T12:15:07.671Z,8.67
2018-04-16T12:17:36.187Z,10.90
2018-04-16T12:20:04.399Z,12.60
2018-04-16T12:22:32.723Z,8.93
2018-04-16T12:25:00.964Z,11.53
2018-04-16T12:27:29.199Z,8.53
2018-04-16T12:29:57.415Z,10.27
2018-04-16T12:32:25.652Z,12.37
2018-04-16T12:34:54.675Z,8.30
2018-04-16T12:37:22.883Z,9.97
2018-04-16T12:39:51.095Z,6.83
2018-04-16T12:42:19.360Z,6.57
2018-04-16T12:44:47.571Z,9.53
2018-04-16T12:47:15.780Z,7.47
2018-04-16T12:49:43.999Z,3.63
2018-04-16T12:52:12.977Z,5.43
2018-04-16T12:54:41.181Z,5.47
2018-04-16T12:57:09.379Z,6.70
2018-04-16T12:59:37.728Z,5.67
2018-04-16T13:02:05.946Z,6.27
2018-04-16T13:04:34.931Z,4.00
2018-04-16T13:07:03.165Z,2.90
2018-04-16T13:09:31.396Z,5.27
2018-04-16T13:11:59.654Z,5.43
2018-04-16T13:14:27.868Z,9.30
2018-04-16T13:16:56.175Z,9.67
2018-04-16T13:19:24.426Z,6.67
2018-04-16T13:21:52.739Z,7.37
2018-04-16T13:24:20.975Z,5.77
2018-04-16T13:26:49.194Z,7.30
2018-04-16T13:29:17.442Z,7.23
2018-04-16T13:31:45.644Z,6.93
2018-04-16T13:34:14.631Z,7.17
2018-04-16T13:36:42.911Z,7.77
2018-04-16T13:39:11.919Z,8.50
2018-04-16T13:41:40.130Z,7.47
2018-04-16T13:44:08.335Z,7.67
2018-04-16T13:46:36.558Z,8.13
2018-04-16T13:49:04.792Z,6.27
2018-04-16T13:51:33.024Z,8.63
2018-04-16T13:54:01.243Z,8.03
2018-04-16T13:56:29.459Z,5.30
2018-04-16T13:58:57.759Z,9.93
2018-04-16T14:01:25.991Z,6.13
2018-04-16T14:03:54.305Z,7.67
2018-04-16T14:06:22.549Z,12.60
2018-04-16T14:08:50.800Z,11.03
2018-04-16T14:11:19.120Z,11.27
2018-04-16T14:13:47.419Z,5.60
2018-04-16T14:16:15.683Z,10.43
2018-04-16T14:18:43.979Z,8.40
2018-04-16T14:21:12.307Z,9.30
2018-04-16T14:23:40.623Z,13.03
2018-04-16T14:26:08.863Z,16.50
2018-04-16T14:28:37.215Z,6.97
2018-04-16T14:31:05.490Z,11.07
2018-04-16T14:33:33.743Z,9.33
2018-04-16T14:36:02.034Z,4.77
2018-04-16T14:38:30.257Z,6.87
2018-04-16T14:40:58.546Z,11.40
2018-04-16T14:43:26.811Z,12.57
2018-04-16T14:45:55.159Z,6.67
2018-04-16T14:48:23.427Z,8.23
2018-04-16T14:50:52.924Z,7.17
2018-04-16T14:53:21.926Z,9.17
2018-04-16T14:55:50.299Z,6.00
2018-04-16T14:58:18.739Z,11.60
2018-04-16T15:00:48.429Z,8.03
2018-04-16T15:03:16.679Z,9.10
2018-04-16T15:05:44.940Z,10.07
2018-04-16T15:08:13.195Z,10.50
2018-04-16T15:10:41.405Z,10.97
2018-04-16T15:13:09.634Z,9.87
2018-04-16T15:15:37.862Z,6.53
2018-04-16T15:18:06.078Z,7.20
2018-04-16T15:20:35.181Z,7.53
2018-04-16T15:23:03.549Z,13.23
2018-04-16T15:25:31.755Z,10.20
2018-04-16T15:28:00.035Z,14.67
2018-04-16T15:30:28.371Z,7.47
2018-04-16T15:32:56.871Z,9.30
2018-04-16T15:35:25.104Z,12.67
2018-04-16T15:37:53.319Z,7.50
2018-04-16T15:40:22.303Z,10.30
2018-04-16T15:42:54.544Z,5.30
2018-04-16T15:45:23.159Z,6.97
2018-04-16T15:47:52.381Z,7.97
2018-04-16T15:50:22.259Z,10.13
2018-04-16T15:52:51.694Z,7.53
2018-04-16T15:55:23.115Z,11.13
2018-04-16T15:57:51.328Z,9.07
2018-04-16T16:00:19.548Z,13.57
2018-04-16T16:02:47.765Z,12.20
2018-04-16T16:05:15.987Z,10.43
2018-04-16T16:07:44.636Z,21.00
2018-04-16T16:10:12.855Z,23.50
2018-04-16T16:12:41.879Z,16.93
2018-04-16T16:15:10.134Z,24.27
2018-04-16T16:17:38.497Z,18.47
2018-04-16T16:20:06.740Z,11.33
2018-04-16T16:22:34.945Z,15.47
2018-04-16T16:25:03.169Z,8.87
2018-04-16T16:27:31.383Z,8.57
2018-04-16T16:29:59.595Z,12.40
2018-04-16T16:32:27.800Z,7.73
2018-04-16T16:34:56.071Z,11.13
2018-04-16T16:37:24.471Z,13.23
2018-04-16T16:39:52.683Z,11.50
2018-04-16T16:42:20.940Z,11.10
2018-04-16T16:44:49.220Z,6.63
2018-04-16T16:47:17.424Z,11.37
2018-04-16T16:49:45.676Z,13.87
2018-04-16T16:52:14.652Z,8.90
2018-04-16T16:54:42.872Z,10.50
2018-04-16T16:57:11.085Z,9.33
2018-04-16T16:59:39.327Z,13.50
2018-04-16T17:02:07.773Z,5.87
2018-04-16T17:04:36.101Z,7.37
2018-04-16T17:07:04.353Z,8.47
2018-04-16T17:09:33.443Z,8.73
2018-04-16T17:12:02.459Z,8.37
2018-04-16T17:14:30.752Z,7.47
2018-04-16T17:16:59.049Z,8.60
2018-04-16T17:19:27.269Z,9.90
2018-04-16T17:21:55.588Z,8.27
2018-04-16T17:24:23.868Z,9.93
2018-04-16T17:26:52.116Z,10.43
2018-04-16T17:29:21.173Z,4.73
2018-04-16T17:31:50.196Z,9.23
2018-04-16T17:34:18.488Z,5.90
2018-04-16T17:36:46.750Z,14.90
2018-04-16T17:39:14.986Z,5.90
2018-04-16T17:41:43.989Z,11.27
2018-04-16T17:44:12.231Z,4.43
2018-04-16T17:46:40.524Z,7.00
2018-04-16T17:49:09.643Z,7.63
2018-04-16T17:51:37.951Z,6.80
2018-04-16T17:54:06.191Z,6.70
2018-04-16T17:56:34.427Z,9.47
2018-04-16T17:59:02.700Z,6.90
2018-04-16T18:01:31.744Z,8.43
2018-04-16T18:04:00.019Z,10.13
2018-04-16T18:06:28.393Z,6.30
2018-04-16T18:08:56.773Z,5.47
2018-04-16T18:11:25.023Z,7.23
2018-04-16T18:13:53.275Z,6.50
2018-04-16T18:16:21.608Z,10.47
2018-04-16T18:18:50.068Z,7.87
2018-04-16T18:21:19.092Z,3.80
2018-04-16T18:23:47.994Z,4.10
2018-04-16T18:26:16.311Z,8.53
2018-04-16T18:28:44.645Z,7.47
2018-04-16T18:31:14.381Z,6.13
2018-04-16T18:33:46.692Z,4.50
2018-04-16T18:36:15.177Z,4.70
2018-04-16T18:38:43.756Z,6.17
2018-04-16T18:41:13.266Z,9.27
2018-04-16T18:43:41.741Z,3.43
2018-04-16T18:46:10.213Z,8.93
2018-04-16T18:48:38.559Z,6.83
2018-04-16T18:51:06.901Z,11.87
2018-04-16T18:53:35.207Z,7.10
2018-04-16T18:56:03.526Z,2.37
2018-04-16T18:58:31.863Z,5.03
2018-04-16T19:01:00.928Z,3.60
2018-04-16T19:03:29.244Z,2.93
2018-04-16T19:05:57.542Z,9.30
2018-04-16T19:08:25.838Z,6.20
2018-04-16T19:10:54.109Z,4.30
2018-04-16T19:13:22.458Z,5.70
2018-04-16T19:15:51.586Z,5.53
2018-04-16T19:18:19.793Z,7.27
2018-04-16T19:20:54.526Z,10.37
2018-04-16T19:23:22.868Z,3.53
2018-04-16T19:25:52.075Z,5.97
2018-04-16T19:28:20.498Z,4.23
2018-04-16T19:30:49.037Z,7.27
2018-04-16T19:33:22.995Z,8.57
2018-04-16T19:35:51.287Z,4.47
2018-04-16T19:38:19.639Z,4.67
2018-04-16T19:40:47.830Z,4.93
2018-04-16T19:43:16.059Z,4.27
2018-04-16T19:45:44.297Z,2.93
2018-04-16T19:48:12.501Z,7.68
2018-04-16T19:50:40.715Z,3.73
2018-04-16T19:53:08.943Z,8.50
2018-04-16T19:55:42.731Z,4.50
2018-04-16T19:58:16.699Z,6.60
2018-04-16T20:00:44.947Z,7.67
2018-04-16T20:03:18.748Z,5.30
2018-04-16T20:05:46.985Z,5.73
2018-04-16T20:08:15.215Z,7.43
2018-04-16T20:10:45.151Z,9.30
2018-04-16T20:13:13.362Z,9.17
2018-04-16T20:15:41.612Z,7.00
2018-04-16T20:18:09.843Z,8.73
2018-04-16T20:20:38.064Z,4.00
2018-04-16T20:23:06.259Z,10.30
2018-04-16T20:25:34.467Z,6.87
2018-04-16T20:28:02.739Z,7.03
2018-04-16T20:30:30.943Z,4.47
2018-04-16T20:32:59.146Z,3.27
2018-04-16T20:35:27.378Z,8.63
2018-04-16T20:37:55.575Z,5.00
2018-04-16T20:40:23.800Z,4.80
2018-04-16T20:42:52.022Z,3.53
2018-04-16T20:45:20.223Z,6.77
2018-04-16T20:47:48.450Z,6.47
2018-04-16T20:50:16.649Z,8.40
2018-04-16T20:52:44.856Z,4.30
2018-04-16T20:55:13.071Z,6.00
2018-04-16T20:57:41.300Z,11.80
2018-04-16T21:00:09.492Z,4.90
2018-04-16T21:02:37.691Z,5.10
2018-04-16T21:05:05.901Z,5.67
2018-04-16T21:07:34.131Z,6.13
2018-04-16T21:10:02.877Z,2.03
2018-04-16T21:12:31.072Z,6.27
2018-04-16T21:14:59.277Z,2.07
2018-04-16T21:17:27.473Z,6.27
2018-04-16T21:19:55.710Z,6.27
2018-04-16T21:22:23.923Z,5.13
2018-04-16T21:24:52.140Z,2.57
2018-04-16T21:27:20.354Z,7.13
2018-04-16T21:29:48.875Z,5.73
2018-04-16T21:32:17.095Z,5.57
2018-04-16T21:34:45.303Z,7.87
2018-04-16T21:37:13.576Z,4.63
2018-04-16T21:39:42.291Z,7.27
2018-04-16T21:42:13.620Z,2.30
2018-04-16T21:44:41.881Z,7.47
2018-04-16T21:47:10.113Z,5.13
2018-04-16T21:49:39.119Z,4.97
2018-04-16T21:52:07.370Z,2.87
2018-04-16T21:54:36.827Z,5.67
2018-04-16T21:57:05.078Z,6.33
2018-04-16T21:59:33.292Z,3.97
2018-04-16T22:02:01.547Z,3.70
2018-04-16T22:04:29.771Z,4.27
2018-04-16T22:06:58.032Z,3.53
2018-04-16T22:09:26.254Z,5.80
2018-04-16T22:11:54.456Z,3.30
2018-04-16T22:14:22.685Z,10.43
2018-04-16T22:16:50.910Z,8.93
2018-04-16T22:19:19.095Z,6.00
2018-04-16T22:21:47.310Z,4.70
2018-04-16T22:24:15.525Z,4.90
2018-04-16T22:26:44.415Z,4.80
2018-04-16T22:29:12.619Z,5.53
2018-04-16T22:31:40.859Z,2.37
2018-04-16T22:34:09.114Z,4.07
2018-04-16T22:36:38.316Z,6.93
2018-04-16T22:39:06.522Z,4.63
2018-04-16T22:41:34.739Z,6.07
2018-04-16T22:44:02.931Z,4.20
2018-04-16T22:46:31.171Z,5.03
2018-04-16T22:48:59.382Z,3.67
2018-04-16T22:51:27.586Z,2.97
2018-04-16T22:53:55.790Z,5.67
2018-04-16T22:56:23.999Z,5.33
2018-04-16T22:58:52.206Z,5.83
2018-04-16T23:01:20.408Z,7.83
2018-04-16T23:03:48.608Z,7.70
2018-04-16T23:06:16.942Z,5.27
2018-04-16T23:08:45.919Z,4.03
2018-04-16T23:11:14.119Z,10.10
2018-04-16T23:13:42.333Z,6.10
2018-04-16T23:16:10.545Z,7.40
2018-04-16T23:18:38.782Z,4.80
2018-04-16T23:21:06.985Z,4.20
2018-04-16T23:23:35.186Z,5.73
2018-04-16T23:26:03.390Z,3.00
2018-04-16T23:28:31.602Z,7.13
2018-04-16T23:30:59.800Z,3.07
2018-04-16T23:33:28.758Z,5.70
2018-04-16T23:35:56.963Z,5.80
2018-04-16T23:38:25.155Z,2.57
2018-04-16T23:40:53.354Z,6.87
2018-04-16T23:43:21.651Z,3.27
2018-04-16T23:45:49.854Z,3.67
2018-04-16T23:48:18.896Z,6.20
2018-04-16T23:50:47.058Z,7.37
2018-04-16T23:53:15.270Z,9.77
2018-04-16T23:55:43.466Z,5.40
2018-04-16T23:58:12.473Z,3.50
